createdAt,value
2023-02-21T00:02:18.141Z,16.81
2023-02-21T00:05:03.543Z,16.79
2023-02-21T00:07:48.869Z,16.75
2023-02-21T00:10:35.052Z,16.72
2023-02-21T00:13:20.660Z,16.70
2023-02-21T00:16:06.327Z,16.67
2023-02-21T00:18:55.806Z,16.65
2023-02-21T00:21:42.025Z,16.64
2023-02-21T00:24:32.016Z,16.63
2023-02-21T00:27:17.599Z,16.62
2023-02-21T00:30:03.283Z,16.61
2023-02-21T00:32:48.781Z,16.60
2023-02-21T00:35:34.211Z,16.57
2023-02-21T00:38:19.996Z,16.56
2023-02-21T00:41:05.721Z,16.55
2023-02-21T00:43:53.979Z,16.52
2023-02-21T00:46:40.113Z,16.50
2023-02-21T00:49:27.140Z,16.50
2023-02-21T00:52:12.735Z,16.49
2023-02-21T00:54:59.620Z,16.45
2023-02-21T00:57:45.244Z,16.44
2023-02-21T01:00:39.705Z,16.46
2023-02-21T01:03:26.015Z,16.46
2023-02-21T01:06:12.229Z,16.43
2023-02-21T01:09:05.962Z,16.44
2023-02-21T01:11:52.341Z,16.43
2023-02-21T01:14:37.992Z,16.42
2023-02-21T01:17:23.656Z,16.40
2023-02-21T01:20:10.329Z,16.38
2023-02-21T01:22:55.852Z,16.39
2023-02-21T01:25:41.654Z,16.39
2023-02-21T01:28:27.335Z,16.39
2023-02-21T01:31:13.412Z,16.39
2023-02-21T01:34:00.172Z,16.38
2023-02-21T01:36:46.552Z,16.38
2023-02-21T01:39:32.882Z,16.35
2023-02-21T01:42:18.972Z,16.34
2023-02-21T01:45:06.727Z,16.36
2023-02-21T01:47:52.210Z,16.38
2023-02-21T01:50:40.640Z,16.37
2023-02-21T01:53:30.268Z,16.37
2023-02-21T01:56:19.125Z,16.36
2023-02-21T01:59:06.455Z,16.38
2023-02-21T02:02:01.891Z,16.39
2023-02-21T02:04:47.898Z,16.38
2023-02-21T02:07:33.463Z,16.37
2023-02-21T02:10:19.283Z,16.37
2023-02-21T02:13:02.163Z,16.37
2023-02-21T02:15:39.990Z,16.42
2023-02-21T02:18:25.969Z,16.42
2023-02-21T02:21:11.163Z,16.43
2023-02-21T02:23:53.293Z,16.44
2023-02-21T02:26:57.791Z,16.43
2023-02-21T02:29:26.268Z,16.45
2023-02-21T02:32:10.465Z,16.45
2023-02-21T02:34:49.163Z,16.47
2023-02-21T02:37:34.482Z,16.47
2023-02-21T02:40:19.658Z,16.47
2023-02-21T02:43:08.931Z,16.49
2023-02-21T02:45:45.705Z,16.49
2023-02-21T02:48:22.361Z,16.49
2023-02-21T02:50:51.245Z,16.49
2023-02-21T02:53:27.511Z,16.55
2023-02-21T02:56:00.990Z,16.56
2023-02-21T02:59:06.847Z,16.56
2023-02-21T03:01:36.856Z,16.57
2023-02-21T03:04:10.298Z,16.59
2023-02-21T03:07:26.714Z,16.62
2023-02-21T03:10:21.145Z,16.65
2023-02-21T03:13:27.336Z,16.69
2023-02-21T03:16:01.054Z,16.67
2023-02-21T03:18:36.784Z,16.68
2023-02-21T03:21:12.736Z,16.69
2023-02-21T03:23:42.039Z,16.66
2023-02-21T03:26:12.071Z,16.70
2023-02-21T03:28:40.032Z,16.68
2023-02-21T03:31:09.294Z,16.68
2023-02-21T03:33:36.360Z,16.69
2023-02-21T03:36:07.418Z,16.69
2023-02-21T03:38:34.401Z,16.72
2023-02-21T03:41:01.503Z,16.73
2023-02-21T03:43:28.325Z,16.75
2023-02-21T03:45:55.183Z,16.74
2023-02-21T03:48:31.410Z,16.74
2023-02-21T03:50:59.423Z,16.75
2023-02-21T03:53:26.429Z,16.76
2023-02-21T03:55:53.537Z,16.78
2023-02-21T03:58:20.596Z,16.75
2023-02-21T04:00:47.637Z,16.79
2023-02-21T04:03:14.642Z,16.78
2023-02-21T04:05:41.643Z,16.82
2023-02-21T04:08:08.484Z,16.81
2023-02-21T04:10:40.592Z,16.80
2023-02-21T04:13:14.082Z,16.82
2023-02-21T04:15:40.929Z,16.82
2023-02-21T04:18:07.796Z,16.81
2023-02-21T04:20:34.596Z,16.81
2023-02-21T04:23:03.547Z,16.82
2023-02-21T04:25:30.818Z,16.83
2023-02-21T04:27:57.832Z,16.85
2023-02-21T04:30:25.092Z,16.86
2023-02-21T04:32:52.034Z,16.86
2023-02-21T04:35:19.178Z,16.87
2023-02-21T04:37:46.655Z,16.88
2023-02-21T04:40:13.960Z,16.88
2023-02-21T04:42:40.910Z,16.93
2023-02-21T04:45:08.141Z,16.91
2023-02-21T04:47:35.018Z,16.93
2023-02-21T04:50:01.923Z,16.94
2023-02-21T04:52:28.825Z,16.96
2023-02-21T04:54:55.671Z,16.97
2023-02-21T04:57:22.677Z,16.97
2023-02-21T04:59:49.618Z,16.99
2023-02-21T05:02:16.489Z,16.97
2023-02-21T05:04:43.460Z,17.01
2023-02-21T05:07:10.507Z,17.00
2023-02-21T05:09:37.332Z,17.00
2023-02-21T05:12:04.510Z,17.00
2023-02-21T05:14:31.344Z,17.02
2023-02-21T05:16:58.173Z,17.04
2023-02-21T05:19:27.897Z,17.00
2023-02-21T05:21:57.317Z,17.03
2023-02-21T05:24:25.775Z,17.03
2023-02-21T05:26:53.018Z,17.05
2023-02-21T05:29:20.068Z,17.03
2023-02-21T05:31:47.662Z,17.05
2023-02-21T05:34:15.765Z,17.04
2023-02-21T05:36:42.653Z,17.08
2023-02-21T05:39:10.526Z,17.09
2023-02-21T05:41:37.517Z,17.08
2023-02-21T05:44:06.311Z,17.08
2023-02-21T05:46:35.181Z,17.07
2023-02-21T05:49:04.185Z,17.08
2023-02-21T05:51:36.617Z,17.08
2023-02-21T05:54:04.197Z,17.07
2023-02-21T05:56:31.377Z,17.06
2023-02-21T05:58:58.248Z,17.06
2023-02-21T06:01:25.098Z,17.11
2023-02-21T06:03:52.120Z,17.15
2023-02-21T06:06:19.210Z,17.21
2023-02-21T06:08:48.339Z,17.26
2023-02-21T06:11:22.501Z,17.35
2023-02-21T06:13:54.839Z,17.38
2023-02-21T06:16:23.092Z,17.41
2023-02-21T06:18:54.332Z,17.45
2023-02-21T06:21:21.221Z,17.47
2023-02-21T06:23:48.272Z,17.49
2023-02-21T06:26:15.823Z,17.52
2023-02-21T06:28:42.780Z,17.50
2023-02-21T06:31:09.744Z,17.47
2023-02-21T06:33:37.084Z,17.44
2023-02-21T06:36:06.140Z,17.47
2023-02-21T06:38:33.981Z,17.51
2023-02-21T06:41:03.283Z,17.54
2023-02-21T06:43:30.184Z,17.53
2023-02-21T06:45:57.142Z,17.59
2023-02-21T06:48:24.058Z,17.62
2023-02-21T06:50:51.049Z,17.64
2023-02-21T06:53:18.066Z,17.65
2023-02-21T06:55:44.950Z,17.69
2023-02-21T06:58:12.026Z,17.71
2023-02-21T07:00:38.970Z,17.74
2023-02-21T07:03:06.206Z,17.75
2023-02-21T07:05:37.985Z,17.76
2023-02-21T07:08:05.374Z,17.48
2023-02-21T07:10:32.341Z,17.43
2023-02-21T07:12:59.293Z,17.49
2023-02-21T07:15:26.320Z,17.38
2023-02-21T07:17:53.190Z,17.34
2023-02-21T07:20:20.101Z,17.29
2023-02-21T07:22:46.993Z,17.26
2023-02-21T07:25:19.160Z,17.26
2023-02-21T07:27:47.655Z,17.23
2023-02-21T07:30:15.850Z,17.22
2023-02-21T07:32:43.214Z,17.20
2023-02-21T07:35:10.176Z,17.17
2023-02-21T07:37:37.436Z,17.23
2023-02-21T07:40:07.305Z,17.32
2023-02-21T07:42:34.669Z,17.40
2023-02-21T07:45:01.751Z,17.41
2023-02-21T07:47:28.744Z,17.48
2023-02-21T07:49:56.072Z,17.48
2023-02-21T07:52:23.478Z,17.54
2023-02-21T07:54:50.607Z,17.60
2023-02-21T07:57:18.159Z,17.63
2023-02-21T07:59:45.629Z,17.68
2023-02-21T08:02:13.255Z,17.66
2023-02-21T08:04:41.068Z,17.75
2023-02-21T08:07:09.279Z,17.79
2023-02-21T08:09:37.777Z,17.80
2023-02-21T08:12:05.386Z,17.86
2023-02-21T08:14:35.041Z,17.88
2023-02-21T08:17:02.029Z,17.89
2023-02-21T08:19:29.106Z,17.89
2023-02-21T08:21:56.246Z,17.92
2023-02-21T08:24:23.309Z,17.94
2023-02-21T08:26:50.307Z,17.97
2023-02-21T08:29:18.459Z,17.97
2023-02-21T08:31:45.665Z,18.01
2023-02-21T08:34:12.911Z,18.02
2023-02-21T08:36:43.793Z,18.03
2023-02-21T08:39:11.094Z,18.10
2023-02-21T08:41:42.614Z,18.08
2023-02-21T08:44:11.912Z,18.12
2023-02-21T08:46:42.171Z,18.11
2023-02-21T08:49:10.591Z,18.14
2023-02-21T08:51:38.390Z,18.20
2023-02-21T08:54:05.311Z,18.17
2023-02-21T08:56:32.594Z,18.17
2023-02-21T08:58:59.776Z,18.17
2023-02-21T09:01:35.632Z,18.20
2023-02-21T09:04:04.889Z,18.18
2023-02-21T09:06:35.046Z,18.21
2023-02-21T09:09:02.102Z,18.24
2023-02-21T09:11:29.112Z,18.24
2023-02-21T09:13:56.041Z,18.25
2023-02-21T09:16:23.268Z,18.28
2023-02-21T09:18:59.398Z,18.26
2023-02-21T09:21:26.904Z,18.30
2023-02-21T09:23:56.100Z,18.29
2023-02-21T09:26:24.608Z,18.30
2023-02-21T09:28:54.613Z,18.29
2023-02-21T09:31:21.721Z,18.28
2023-02-21T09:33:48.853Z,18.29
2023-02-21T09:36:16.801Z,18.25
2023-02-21T09:38:44.150Z,18.25
2023-02-21T09:41:15.171Z,18.24
2023-02-21T09:43:53.958Z,18.25
2023-02-21T09:46:51.720Z,18.27
2023-02-21T09:49:30.504Z,18.26
2023-02-21T09:52:00.456Z,18.27
2023-02-21T09:54:37.494Z,18.23
2023-02-21T09:57:07.614Z,18.26
2023-02-21T09:59:34.585Z,18.27
2023-02-21T10:02:24.069Z,18.24
2023-02-21T10:05:18.883Z,18.24
2023-02-21T10:07:45.938Z,18.25
2023-02-21T10:10:27.567Z,18.24
2023-02-21T10:12:57.627Z,18.23
2023-02-21T10:15:44.631Z,18.25
2023-02-21T10:18:35.714Z,18.23
2023-02-21T10:21:09.822Z,18.21
2023-02-21T10:23:58.223Z,18.19
2023-02-21T10:26:29.739Z,18.20
2023-02-21T10:28:57.709Z,18.17
2023-02-21T10:31:34.405Z,18.17
2023-02-21T10:34:03.807Z,18.17
2023-02-21T10:36:30.932Z,18.19
2023-02-21T10:39:21.007Z,18.15
2023-02-21T10:41:50.269Z,18.14
2023-02-21T10:44:27.235Z,18.12
2023-02-21T10:47:28.514Z,18.10
2023-02-21T10:50:06.338Z,18.16
2023-02-21T10:52:53.621Z,18.16
2023-02-21T10:55:32.664Z,18.11
2023-02-21T10:58:08.972Z,18.10
2023-02-21T11:00:48.525Z,18.09
2023-02-21T11:03:18.657Z,18.07
2023-02-21T11:05:58.177Z,18.07
2023-02-21T11:08:41.431Z,18.07
2023-02-21T11:11:10.172Z,18.05
2023-02-21T11:13:37.371Z,18.06
2023-02-21T11:16:12.613Z,18.05
2023-02-21T11:18:39.852Z,18.04
2023-02-21T11:21:18.689Z,18.02
2023-02-21T11:24:02.967Z,18.04
2023-02-21T11:26:35.857Z,18.02
2023-02-21T11:29:19.323Z,18.02
2023-02-21T11:31:46.757Z,18.03
2023-02-21T11:34:15.434Z,18.01
2023-02-21T11:36:45.237Z,18.00
2023-02-21T11:39:21.113Z,18.05
2023-02-21T11:41:55.598Z,18.11
2023-02-21T11:44:36.642Z,18.11
2023-02-21T11:47:12.626Z,18.10
2023-02-21T11:49:51.832Z,18.11
2023-02-21T11:52:55.672Z,18.12
2023-02-21T11:55:26.488Z,18.20
2023-02-21T11:58:11.991Z,18.24
2023-02-21T12:01:02.268Z,18.26
2023-02-21T12:03:47.451Z,18.22
2023-02-21T12:06:21.520Z,18.23
2023-02-21T12:08:58.293Z,18.21
2023-02-21T12:11:51.285Z,18.26
2023-02-21T12:14:33.466Z,18.29
2023-02-21T12:17:20.645Z,18.28
2023-02-21T12:20:08.948Z,18.09
2023-02-21T12:22:42.835Z,17.93
2023-02-21T12:25:40.102Z,17.84
2023-02-21T12:28:14.040Z,17.75
2023-02-21T12:30:47.162Z,17.69
2023-02-21T12:33:35.741Z,17.63
2023-02-21T12:36:14.085Z,17.61
2023-02-21T12:38:57.484Z,17.56
2023-02-21T12:41:35.706Z,17.53
2023-02-21T12:44:20.363Z,17.52
2023-02-21T12:46:47.434Z,17.46
2023-02-21T12:49:29.720Z,17.42
2023-02-21T12:52:15.028Z,17.40
2023-02-21T12:54:56.994Z,17.38
2023-02-21T12:57:52.108Z,17.36
2023-02-21T13:00:37.140Z,17.33
2023-02-21T13:03:09.994Z,17.32
2023-02-21T13:05:42.199Z,17.31
2023-02-21T13:08:23.183Z,17.27
2023-02-21T13:11:05.308Z,17.23
2023-02-21T13:13:33.894Z,17.24
2023-02-21T13:16:10.437Z,17.21
2023-02-21T13:19:07.510Z,17.22
2023-02-21T13:21:46.376Z,17.19
2023-02-21T13:24:27.612Z,17.16
2023-02-21T13:27:10.535Z,17.18
2023-02-21T13:29:39.682Z,17.14
2023-02-21T13:32:14.078Z,17.11
2023-02-21T13:35:01.441Z,17.12
2023-02-21T13:37:31.907Z,17.10
2023-02-21T13:40:08.468Z,17.09
2023-02-21T13:42:38.963Z,17.08
2023-02-21T13:45:26.583Z,17.13
2023-02-21T13:47:53.753Z,17.12
2023-02-21T13:50:39.445Z,17.09
2023-02-21T13:53:09.436Z,16.96
2023-02-21T13:55:38.067Z,16.82
2023-02-21T13:58:08.107Z,16.69
2023-02-21T14:00:35.505Z,16.60
2023-02-21T14:03:25.502Z,16.70
2023-02-21T14:05:52.824Z,16.83
2023-02-21T14:08:33.932Z,16.67
2023-02-21T14:11:07.092Z,16.55
2023-02-21T14:13:41.810Z,16.42
2023-02-21T14:16:08.792Z,16.39
2023-02-21T14:18:38.882Z,16.36
2023-02-21T14:21:23.055Z,16.28
2023-02-21T14:23:51.474Z,16.48
2023-02-21T14:27:02.519Z,16.64
2023-02-21T14:29:35.495Z,16.78
2023-02-21T14:32:03.117Z,16.87
2023-02-21T14:34:36.731Z,16.93
2023-02-21T14:37:13.809Z,16.95
2023-02-21T14:39:46.648Z,17.01
2023-02-21T14:42:39.626Z,17.05
2023-02-21T14:45:12.548Z,17.09
2023-02-21T14:47:48.564Z,17.09
2023-02-21T14:50:35.900Z,17.05
2023-02-21T14:53:39.471Z,17.07
2023-02-21T14:56:34.166Z,17.09
2023-02-21T14:59:10.142Z,17.10
2023-02-21T15:02:01.533Z,16.89
2023-02-21T15:04:28.510Z,16.67
2023-02-21T15:07:17.064Z,16.58
2023-02-21T15:09:44.340Z,16.67
2023-02-21T15:12:18.104Z,16.79
2023-02-21T15:14:52.416Z,16.84
2023-02-21T15:17:25.256Z,16.90
2023-02-21T15:20:06.234Z,16.92
2023-02-21T15:22:33.420Z,16.99
2023-02-21T15:25:21.464Z,17.03
2023-02-21T15:27:50.359Z,17.04
2023-02-21T15:30:19.527Z,17.06
2023-02-21T15:33:13.824Z,17.06
2023-02-21T15:36:01.281Z,17.11
2023-02-21T15:38:46.497Z,17.18
2023-02-21T15:41:31.430Z,17.24
2023-02-21T15:44:22.928Z,16.93
2023-02-21T15:46:56.047Z,16.72
2023-02-21T15:49:35.577Z,16.55
2023-02-21T15:52:05.136Z,16.55
2023-02-21T15:54:40.313Z,16.54
2023-02-21T15:57:11.815Z,16.74
2023-02-21T15:59:41.032Z,16.80
2023-02-21T16:02:13.704Z,16.89
2023-02-21T16:04:48.427Z,16.92
2023-02-21T16:07:37.586Z,16.98
2023-02-21T16:10:09.411Z,17.01
2023-02-21T16:12:39.252Z,17.03
2023-02-21T16:15:09.204Z,17.07
2023-02-21T16:17:39.227Z,17.11
2023-02-21T16:20:13.645Z,17.15
2023-02-21T16:23:08.581Z,17.16
2023-02-21T16:25:29.608Z,17.17
2023-02-21T16:28:00.640Z,17.23
2023-02-21T16:30:30.783Z,17.24
2023-02-21T16:33:04.079Z,17.29
2023-02-21T16:35:32.278Z,17.36
2023-02-21T16:38:00.559Z,17.41
2023-02-21T16:40:30.987Z,17.41
2023-02-21T16:42:59.201Z,17.47
2023-02-21T16:45:26.235Z,17.47
2023-02-21T16:47:59.193Z,17.54
2023-02-21T16:50:32.914Z,17.61
2023-02-21T16:53:01.920Z,17.65
2023-02-21T16:55:30.465Z,17.68
2023-02-21T16:58:02.697Z,17.71
2023-02-21T17:00:31.249Z,17.76
2023-02-21T17:02:58.358Z,17.80
2023-02-21T17:05:26.008Z,17.82
2023-02-21T17:07:58.804Z,17.79
2023-02-21T17:10:26.139Z,17.88
2023-02-21T17:12:53.263Z,17.96
2023-02-21T17:15:22.247Z,18.00
2023-02-21T17:17:53.502Z,18.05
2023-02-21T17:20:22.417Z,18.06
2023-02-21T17:22:49.797Z,18.10
2023-02-21T17:25:17.943Z,18.14
2023-02-21T17:27:46.156Z,18.16
2023-02-21T17:30:14.192Z,18.20
2023-02-21T17:32:41.553Z,18.23
2023-02-21T17:35:09.224Z,18.24
2023-02-21T17:37:36.566Z,18.10
2023-02-21T17:40:04.152Z,18.10
2023-02-21T17:42:31.266Z,18.14
2023-02-21T17:44:59.366Z,18.18
2023-02-21T17:47:26.401Z,18.24
2023-02-21T17:49:54.921Z,18.26
2023-02-21T17:52:22.447Z,18.26
2023-02-21T17:54:49.639Z,18.32
2023-02-21T17:57:17.174Z,18.35
2023-02-21T17:59:45.852Z,18.38
2023-02-21T18:02:14.625Z,18.43
2023-02-21T18:04:42.091Z,18.47
2023-02-21T18:07:11.708Z,18.53
2023-02-21T18:09:38.993Z,18.54
2023-02-21T18:12:06.375Z,18.56
2023-02-21T18:14:33.355Z,18.58
2023-02-21T18:17:00.351Z,18.62
2023-02-21T18:19:27.519Z,18.64
2023-02-21T18:21:54.574Z,18.61
2023-02-21T18:24:23.337Z,18.39
2023-02-21T18:26:50.846Z,18.50
2023-02-21T18:29:18.236Z,18.62
2023-02-21T18:31:47.711Z,18.68
2023-02-21T18:34:15.138Z,18.71
2023-02-21T18:36:48.238Z,18.76
2023-02-21T18:39:17.174Z,18.83
2023-02-21T18:41:45.065Z,18.82
2023-02-21T18:44:12.412Z,18.81
2023-02-21T18:46:44.506Z,18.81
2023-02-21T18:49:14.139Z,18.87
2023-02-21T18:51:41.100Z,18.89
2023-02-21T18:54:09.227Z,18.89
2023-02-21T18:56:36.777Z,18.87
2023-02-21T18:59:04.128Z,18.91
2023-02-21T19:01:31.375Z,18.91
2023-02-21T19:03:58.333Z,18.94
2023-02-21T19:06:25.896Z,18.95
2023-02-21T19:08:54.779Z,18.90
2023-02-21T19:11:22.141Z,18.94
2023-02-21T19:13:51.724Z,18.93
2023-02-21T19:16:20.637Z,18.98
2023-02-21T19:18:48.003Z,18.96
2023-02-21T19:21:15.322Z,19.02
2023-02-21T19:23:43.265Z,19.01
2023-02-21T19:26:10.770Z,19.01
2023-02-21T19:28:40.545Z,19.02
2023-02-21T19:31:10.952Z,18.98
2023-02-21T19:33:38.704Z,19.00
2023-02-21T19:36:07.862Z,19.00
2023-02-21T19:38:35.424Z,19.02
2023-02-21T19:41:06.727Z,18.98
2023-02-21T19:43:34.833Z,18.95
2023-02-21T19:46:02.261Z,18.93
2023-02-21T19:48:29.716Z,18.87
2023-02-21T19:50:57.318Z,18.81
2023-02-21T19:53:24.595Z,18.80
2023-02-21T19:55:51.670Z,18.82
2023-02-21T19:58:21.411Z,18.81
2023-02-21T20:00:51.379Z,18.82
2023-02-21T20:03:19.418Z,18.80
2023-02-21T20:05:46.798Z,18.81
2023-02-21T20:08:15.117Z,18.82
2023-02-21T20:10:42.247Z,18.83
2023-02-21T20:13:10.026Z,18.86
2023-02-21T20:15:38.482Z,18.87
2023-02-21T20:18:06.095Z,18.86
2023-02-21T20:20:34.671Z,18.90
2023-02-21T20:23:02.774Z,18.90
2023-02-21T20:25:30.892Z,18.91
2023-02-21T20:27:58.547Z,18.93
2023-02-21T20:30:26.131Z,18.92
2023-02-21T20:32:56.723Z,18.94
2023-02-21T20:35:25.252Z,18.96
2023-02-21T20:37:56.062Z,18.97
2023-02-21T20:40:26.082Z,18.99
2023-02-21T20:42:53.512Z,19.02
2023-02-21T20:45:24.018Z,19.03
2023-02-21T20:47:52.423Z,19.06
2023-02-21T20:50:25.102Z,19.11
2023-02-21T20:52:56.313Z,19.08
2023-02-21T20:55:26.174Z,19.14
2023-02-21T20:57:54.150Z,19.14
2023-02-21T21:00:26.341Z,19.16
2023-02-21T21:02:54.826Z,19.18
2023-02-21T21:05:22.262Z,19.25
2023-02-21T21:07:56.222Z,19.21
2023-02-21T21:10:24.595Z,19.21
2023-02-21T21:12:52.552Z,19.17
2023-02-21T21:15:23.313Z,19.20
2023-02-21T21:17:52.335Z,19.21
2023-02-21T21:20:22.409Z,19.20
2023-02-21T21:22:50.186Z,19.13
2023-02-21T21:25:24.661Z,19.17
2023-02-21T21:27:59.297Z,19.15
2023-02-21T21:30:27.956Z,19.16
2023-02-21T21:33:02.155Z,19.15
2023-02-21T21:35:30.994Z,19.13
2023-02-21T21:37:59.260Z,19.15
2023-02-21T21:40:29.864Z,19.15
2023-02-21T21:42:59.277Z,19.16
2023-02-21T21:45:28.324Z,19.14
2023-02-21T21:48:00.998Z,19.14
2023-02-21T21:50:28.441Z,19.13
2023-02-21T21:53:03.384Z,19.11
2023-02-21T21:55:32.371Z,19.07
2023-02-21T21:58:01.630Z,19.09
2023-02-21T22:00:32.076Z,19.07
2023-02-21T22:03:02.227Z,19.06
2023-02-21T22:05:40.756Z,19.09
2023-02-21T22:08:08.271Z,19.09
2023-02-21T22:10:35.987Z,19.06
2023-02-21T22:13:12.737Z,19.05
2023-02-21T22:15:45.366Z,19.05
2023-02-21T22:18:16.285Z,19.06
2023-02-21T22:20:49.044Z,19.07
2023-02-21T22:23:21.593Z,18.99
2023-02-21T22:25:50.582Z,19.07
2023-02-21T22:28:19.334Z,18.99
2023-02-21T22:30:46.708Z,18.92
2023-02-21T22:33:20.116Z,18.72
2023-02-21T22:35:47.732Z,18.60
2023-02-21T22:38:17.598Z,18.52
2023-02-21T22:40:45.414Z,18.47
2023-02-21T22:43:14.106Z,18.37
2023-02-21T22:45:44.770Z,18.30
2023-02-21T22:48:11.961Z,18.24
2023-02-21T22:50:39.854Z,18.24
2023-02-21T22:53:11.790Z,18.18
2023-02-21T22:55:39.579Z,18.16
2023-02-21T22:58:09.665Z,18.10
2023-02-21T23:00:38.224Z,18.07
2023-02-21T23:03:13.364Z,18.04
2023-02-21T23:05:47.069Z,17.98
2023-02-21T23:08:16.360Z,17.94
2023-02-21T23:10:43.571Z,17.92
2023-02-21T23:13:17.346Z,17.87
2023-02-21T23:15:45.756Z,17.85
2023-02-21T23:18:20.784Z,17.79
2023-02-21T23:20:53.244Z,17.77
2023-02-21T23:23:26.167Z,17.73
2023-02-21T23:25:55.736Z,17.71
2023-02-21T23:28:23.037Z,17.68
2023-02-21T23:30:51.057Z,17.63
2023-02-21T23:33:24.602Z,17.59
2023-02-21T23:35:53.873Z,17.58
2023-02-21T23:38:22.963Z,17.53
2023-02-21T23:40:57.476Z,17.51
2023-02-21T23:43:29.802Z,17.47
2023-02-21T23:45:58.301Z,17.44
2023-02-21T23:48:26.250Z,17.36
2023-02-21T23:50:58.228Z,17.35
2023-02-21T23:53:27.899Z,17.33
2023-02-21T23:56:01.184Z,17.29
2023-02-21T23:58:33.321Z,17.24
